sensor_id;sensor_type;location;lat;lon;timestamp;pressure;altitude;pressure_sealevel;temperature;humidity
79752;BME280;69234;47.446;21.636;2023-04-28T03:56:48;101281.44;;;2.62;81.19
79752;BME280;69234;47.446;21.636;2023-04-28T03:57:20;101280.59;;;2.61;81.04
79752;BME280;69234;47.446;21.636;2023-04-28T03:57:51;101284.09;;;2.62;81.36
79752;BME280;69234;47.446;21.636;2023-04-28T03:58:22;101278.88;;;2.60;81.10
79752;BME280;69234;47.446;21.636;2023-04-28T03:58:53;101291.19;;;2.61;81.37
79752;BME280;69234;47.446;21.636;2023-04-28T03:59:24;101285.97;;;2.60;81.36
79752;BME280;69234;47.446;21.636;2023-04-28T03:59:55;101283.25;;;2.61;81.30
79752;BME280;69234;47.446;21.636;2023-04-28T04:00:26;101276.38;;;2.56;81.19
79752;BME280;69234;47.446;21.636;2023-04-28T04:00:58;101270.19;;;2.55;81.38
79752;BME280;69234;47.446;21.636;2023-04-28T04:01:30;101288.63;;;2.60;81.11
79752;BME280;69234;47.446;21.636;2023-04-28T04:02:01;101287.78;;;2.58;81.40
79752;BME280;69234;47.446;21.636;2023-04-28T04:02:31;101285.25;;;2.55;81.44
79752;BME280;69234;47.446;21.636;2023-04-28T04:03:03;101285.25;;;2.55;81.73
79752;BME280;69234;47.446;21.636;2023-04-28T04:03:34;101290.44;;;2.58;81.39
79752;BME280;69234;47.446;21.636;2023-04-28T04:04:05;101287.91;;;2.55;81.45
79752;BME280;69234;47.446;21.636;2023-04-28T04:04:36;101286.13;;;2.55;81.29
79752;BME280;69234;47.446;21.636;2023-04-28T04:05:07;101293.09;;;2.58;81.38
79752;BME280;69234;47.446;21.636;2023-04-28T04:05:39;101288.75;;;2.55;81.17
79752;BME280;69234;47.446;21.636;2023-04-28T04:06:11;101294.78;;;2.60;81.25
79752;BME280;69234;47.446;21.636;2023-04-28T04:06:42;101292.25;;;2.57;81.23
79752;BME280;69234;47.446;21.636;2023-04-28T04:07:13;101292.16;;;2.59;81.14
79752;BME280;69234;47.446;21.636;2023-04-28T04:07:44;101277.38;;;2.53;80.96
79752;BME280;69234;47.446;21.636;2023-04-28T04:08:16;101295.75;;;2.58;80.77
79752;BME280;69234;47.446;21.636;2023-04-28T04:08:47;101285.16;;;2.58;81.03
79752;BME280;69234;47.446;21.636;2023-04-28T04:09:19;101286.88;;;2.59;81.12
79752;BME280;69234;47.446;21.636;2023-04-28T04:09:50;101284.16;;;2.60;81.21
79752;BME280;69234;47.446;21.636;2023-04-28T04:10:21;101293.84;;;2.61;80.97
79752;BME280;69234;47.446;21.636;2023-04-28T04:10:53;101284.44;;;2.53;81.27
79752;BME280;69234;47.446;21.636;2023-04-28T04:11:25;101290.53;;;2.56;81.26
79752;BME280;69234;47.446;21.636;2023-04-28T04:11:56;101282.03;;;2.47;81.26
79752;BME280;69234;47.446;21.636;2023-04-28T04:12:27;101285.47;;;2.49;81.74
79752;BME280;69234;47.446;21.636;2023-04-28T04:12:58;101271.47;;;2.45;81.25
79752;BME280;69234;47.446;21.636;2023-04-28T04:13:29;101286.13;;;2.55;81.14
79752;BME280;69234;47.446;21.636;2023-04-28T04:14:00;101286.88;;;2.59;80.95
79752;BME280;69234;47.446;21.636;2023-04-28T04:14:31;101288.72;;;2.57;80.94
79752;BME280;69234;47.446;21.636;2023-04-28T04:15:04;101286.94;;;2.57;81.32
79752;BME280;69234;47.446;21.636;2023-04-28T04:15:35;101292.91;;;2.62;81.18
79752;BME280;69234;47.446;21.636;2023-04-28T04:16:07;101282.50;;;2.58;81.34
79752;BME280;69234;47.446;21.636;2023-04-28T04:16:38;101293.84;;;2.61;81.01
79752;BME280;69234;47.446;21.636;2023-04-28T04:17:09;101293.97;;;2.58;81.54
79752;BME280;69234;47.446;21.636;2023-04-28T04:17:40;101289.81;;;2.51;81.29
79752;BME280;69234;47.446;21.636;2023-04-28T04:18:11;101291.41;;;2.55;81.17
79752;BME280;69234;47.446;21.636;2023-04-28T04:19:02;101287.78;;;2.58;80.87
79752;BME280;69234;47.446;21.636;2023-04-28T04:19:39;101291.31;;;2.58;81.29
79752;BME280;69234;47.446;21.636;2023-04-28T04:20:11;101294.59;;;2.65;80.74
79752;BME280;69234;47.446;21.636;2023-04-28T04:20:41;101282.38;;;2.61;80.67
79752;BME280;69234;47.446;21.636;2023-04-28T04:21:12;101289.28;;;2.65;81.35
79752;BME280;69234;47.446;21.636;2023-04-28T04:21:43;101300.75;;;2.66;81.12
79752;BME280;69234;47.446;21.636;2023-04-28T04:22:14;101284.28;;;2.57;81.30
79752;BME280;69234;47.446;21.636;2023-04-28T04:22:45;101286.75;;;2.62;81.20
79752;BME280;69234;47.446;21.636;2023-04-28T04:23:17;101298.09;;;2.66;81.44
79752;BME280;69234;47.446;21.636;2023-04-28T04:23:47;101291.19;;;2.61;81.42
79752;BME280;69234;47.446;21.636;2023-04-28T04:24:18;101294.41;;;2.70;81.52
79752;BME280;69234;47.446;21.636;2023-04-28T04:24:49;101294.41;;;2.70;80.92
79752;BME280;69234;47.446;21.636;2023-04-28T04:25:20;101297.88;;;2.72;80.99
79752;BME280;69234;47.446;21.636;2023-04-28T04:25:52;101300.44;;;2.75;80.82
79752;BME280;69234;47.446;21.636;2023-04-28T04:26:23;101290.75;;;2.74;80.15
79752;BME280;69234;47.446;21.636;2023-04-28T04:26:55;101300.13;;;2.82;80.92
79752;BME280;69234;47.446;21.636;2023-04-28T04:27:46;101292.09;;;2.84;81.07
79752;BME280;69234;47.446;21.636;2023-04-28T04:28:17;101303.41;;;2.89;80.50
79752;BME280;69234;47.446;21.636;2023-04-28T04:28:47;101301.72;;;2.86;81.21
79752;BME280;69234;47.446;21.636;2023-04-28T04:29:19;101294.59;;;2.89;80.63
79752;BME280;69234;47.446;21.636;2023-04-28T04:29:50;101300.66;;;2.92;80.67
79752;BME280;69234;47.446;21.636;2023-04-28T04:30:21;101292.69;;;2.92;80.46
79752;BME280;69234;47.446;21.636;2023-04-28T04:30:52;101288.16;;;2.94;80.32
79752;BME280;69234;47.446;21.636;2023-04-28T04:31:22;101299.47;;;2.99;80.10
79752;BME280;69234;47.446;21.636;2023-04-28T04:31:55;101286.56;;;2.90;80.04
79752;BME280;69234;47.446;21.636;2023-04-28T04:32:27;101303.81;;;3.02;79.76
79752;BME280;69234;47.446;21.636;2023-04-28T04:32:57;101309.69;;;3.10;79.85
79752;BME280;69234;47.446;21.636;2023-04-28T04:33:28;101306.94;;;3.12;79.92
79752;BME280;69234;47.446;21.636;2023-04-28T04:33:59;101298.09;;;3.13;79.55
79752;BME280;69234;47.446;21.636;2023-04-28T04:34:30;101304.00;;;3.19;79.66
79752;BME280;69234;47.446;21.636;2023-04-28T04:35:02;101306.47;;;3.24;79.81
79752;BME280;69234;47.446;21.636;2023-04-28T04:35:52;101312.16;;;3.37;78.75
79752;BME280;69234;47.446;21.636;2023-04-28T04:36:23;101313.88;;;3.38;79.11
79752;BME280;69234;47.446;21.636;2023-04-28T04:36:55;101307.59;;;3.40;79.37
79752;BME280;69234;47.446;21.636;2023-04-28T04:37:26;101305.59;;;3.45;78.90
79752;BME280;69234;47.446;21.636;2023-04-28T04:38:03;101303.63;;;3.50;79.04
79752;BME280;69234;47.446;21.636;2023-04-28T04:38:35;101298.44;;;3.47;78.66
79752;BME280;69234;47.446;21.636;2023-04-28T04:39:19;101309.56;;;3.57;78.29
79752;BME280;69234;47.446;21.636;2023-04-28T04:39:51;101299.84;;;3.56;77.60
79752;BME280;69234;47.446;21.636;2023-04-28T04:40:22;101296.22;;;3.58;77.71
79752;BME280;69234;47.446;21.636;2023-04-28T04:40:54;101305.44;;;3.70;77.56
79752;BME280;69234;47.446;21.636;2023-04-28T04:41:25;101294.91;;;3.69;78.08
79752;BME280;69234;47.446;21.636;2023-04-28T04:42:08;101304.47;;;3.73;78.24
79752;BME280;69234;47.446;21.636;2023-04-28T04:42:56;101305.94;;;3.80;77.49
79752;BME280;69234;47.446;21.636;2023-04-28T04:43:30;101307.28;;;3.90;77.45
79752;BME280;69234;47.446;21.636;2023-04-28T04:44:01;101313.94;;;4.00;77.51
79752;BME280;69234;47.446;21.636;2023-04-28T04:44:39;101297.59;;;4.10;76.88
79752;BME280;69234;47.446;21.636;2023-04-28T04:45:15;101305.00;;;4.22;76.04
79752;BME280;69234;47.446;21.636;2023-04-28T04:45:46;101305.59;;;4.28;75.73
79752;BME280;69234;47.446;21.636;2023-04-28T04:46:18;101312.19;;;4.40;75.44
79752;BME280;69234;47.446;21.636;2023-04-28T04:46:49;101315.59;;;4.44;75.74
79752;BME280;69234;47.446;21.636;2023-04-28T04:47:22;101297.56;;;4.50;75.14
79752;BME280;69234;47.446;21.636;2023-04-28T04:47:54;101303.16;;;4.63;74.65
79752;BME280;69234;47.446;21.636;2023-04-28T04:48:24;101307.47;;;4.66;74.58
79752;BME280;69234;47.446;21.636;2023-04-28T04:48:55;101301.88;;;4.72;74.61
79752;BME280;69234;47.446;21.636;2023-04-28T04:49:26;101309.09;;;4.89;73.99
79752;BME280;69234;47.446;21.636;2023-04-28T04:49:58;101293.91;;;4.91;73.74
79752;BME280;69234;47.446;21.636;2023-04-28T04:50:29;101300.53;;;5.01;73.40
79752;BME280;69234;47.446;21.636;2023-04-28T04:51:00;101306.13;;;5.14;72.69
79752;BME280;69234;47.446;21.636;2023-04-28T04:51:31;101310.84;;;5.26;72.43
79752;BME280;69234;47.446;21.636;2023-04-28T04:52:03;101314.09;;;5.33;72.34
79752;BME280;69234;47.446;21.636;2023-04-28T04:52:36;101311.06;;;5.40;72.40
79752;BME280;69234;47.446;21.636;2023-04-28T04:53:07;101302.19;;;5.40;72.16
79752;BME280;69234;47.446;21.636;2023-04-28T04:53:38;101306.13;;;5.50;71.29
79752;BME280;69234;47.446;21.636;2023-04-28T04:54:09;101307.78;;;5.53;71.26
79752;BME280;69234;47.446;21.636;2023-04-28T04:54:41;101303.56;;;5.48;71.13
79752;BME280;69234;47.446;21.636;2023-04-28T04:55:14;101311.88;;;5.60;70.87
79752;BME280;69234;47.446;21.636;2023-04-28T04:55:46;101311.28;;;5.72;70.29
79752;BME280;69234;47.446;21.636;2023-04-28T04:56:18;101309.31;;;5.76;71.03
79752;BME280;69234;47.446;21.636;2023-04-28T04:56:49;101315.13;;;5.84;70.51
79752;BME280;69234;47.446;21.636;2023-04-28T04:57:29;101299.13;;;5.84;70.54
79752;BME280;69234;47.446;21.636;2023-04-28T04:58:23;101310.84;;;5.99;69.92
79752;BME280;69234;47.446;21.636;2023-04-28T04:59:13;101307.31;;;5.98;69.85
79752;BME280;69234;47.446;21.636;2023-04-28T04:59:52;101313.19;;;6.05;70.20
79752;BME280;69234;47.446;21.636;2023-04-28T05:00:23;101311.38;;;6.05;69.99
79752;BME280;69234;47.446;21.636;2023-04-28T05:00:53;101307.56;;;6.11;69.82
79752;BME280;69234;47.446;21.636;2023-04-28T05:01:25;101314.31;;;6.18;69.79
79752;BME280;69234;47.446;21.636;2023-04-28T05:01:56;101308.97;;;6.18;69.47
79752;BME280;69234;47.446;21.636;2023-04-28T05:02:27;101312.25;;;6.23;69.57
79752;BME280;69234;47.446;21.636;2023-04-28T05:02:59;101316.56;;;6.26;69.31
79752;BME280;69234;47.446;21.636;2023-04-28T05:03:31;101321.03;;;6.25;68.75
79752;BME280;69234;47.446;21.636;2023-04-28T05:04:03;101300.09;;;6.17;68.59
79752;BME280;69234;47.446;21.636;2023-04-28T05:04:33;101319.94;;;6.29;68.93
79752;BME280;69234;47.446;21.636;2023-04-28T05:05:05;101315.94;;;6.38;68.87
79752;BME280;69234;47.446;21.636;2023-04-28T05:05:36;101318.34;;;6.42;68.48
79752;BME280;69234;47.446;21.636;2023-04-28T05:06:14;101312.84;;;6.46;68.46
79752;BME280;69234;47.446;21.636;2023-04-28T05:06:48;101309.22;;;6.47;68.87
79752;BME280;69234;47.446;21.636;2023-04-28T05:07:19;101312.69;;;6.49;68.27
79752;BME280;69234;47.446;21.636;2023-04-28T05:07:51;101313.63;;;6.48;68.47
79752;BME280;69234;47.446;21.636;2023-04-28T05:08:22;101309.22;;;6.47;68.59
79752;BME280;69234;47.446;21.636;2023-04-28T05:08:52;101314.50;;;6.48;67.88
79752;BME280;69234;47.446;21.636;2023-04-28T05:09:23;101313.00;;;6.42;67.80
79752;BME280;69234;47.446;21.636;2023-04-28T05:09:54;101313.00;;;6.42;68.29
79752;BME280;69234;47.446;21.636;2023-04-28T05:10:25;101296.22;;;6.40;68.59
79752;BME280;69234;47.446;21.636;2023-04-28T05:10:57;101302.13;;;6.30;68.73
79752;BME280;69234;47.446;21.636;2023-04-28T05:11:28;101307.84;;;6.39;68.39
79752;BME280;69234;47.446;21.636;2023-04-28T05:11:59;101306.97;;;6.39;68.67
79752;BME280;69234;47.446;21.636;2023-04-28T05:12:30;101321.56;;;6.49;67.88
79752;BME280;69234;47.446;21.636;2023-04-28T05:13:01;101310.88;;;6.49;67.84
79752;BME280;69234;47.446;21.636;2023-04-28T05:13:32;101311.84;;;6.48;68.14
79752;BME280;69234;47.446;21.636;2023-04-28T05:14:05;101319.03;;;6.46;68.76
79752;BME280;69234;47.446;21.636;2023-04-28T05:14:36;101319.84;;;6.48;68.17
79752;BME280;69234;47.446;21.636;2023-04-28T05:15:07;101308.38;;;6.46;68.25
79752;BME280;69234;47.446;21.636;2023-04-28T05:15:41;101308.28;;;6.48;68.27
79752;BME280;69234;47.446;21.636;2023-04-28T05:16:37;101319.22;;;6.43;68.74
79752;BME280;69234;47.446;21.636;2023-04-28T05:17:20;101313.16;;;6.39;68.76
79752;BME280;69234;47.446;21.636;2023-04-28T05:17:51;101319.03;;;6.46;68.79
79752;BME280;69234;47.446;21.636;2023-04-28T05:18:22;101310.03;;;6.49;69.00
79752;BME280;69234;47.446;21.636;2023-04-28T05:18:52;101315.09;;;6.53;68.95
79752;BME280;69234;47.446;21.636;2023-04-28T05:19:25;101316.06;;;6.52;68.43
79752;BME280;69234;47.446;21.636;2023-04-28T05:19:55;101317.16;;;6.48;67.83
79752;BME280;69234;47.446;21.636;2023-04-28T05:20:26;101307.50;;;6.46;67.38
79752;BME280;69234;47.446;21.636;2023-04-28T05:20:57;101315.44;;;6.47;67.45
79752;BME280;69234;47.446;21.636;2023-04-28T05:21:28;101319.69;;;6.51;66.96
79752;BME280;69234;47.446;21.636;2023-04-28T05:21:58;101310.94;;;6.48;67.55
79752;BME280;69234;47.446;21.636;2023-04-28T05:22:30;101313.63;;;6.48;66.91
79752;BME280;69234;47.446;21.636;2023-04-28T05:23:02;101325.03;;;6.51;66.30
79752;BME280;69234;47.446;21.636;2023-04-28T05:23:33;101321.31;;;6.54;66.31
79752;BME280;69234;47.446;21.636;2023-04-28T05:24:04;101316.91;;;6.53;66.61
79752;BME280;69234;47.446;21.636;2023-04-28T05:24:35;101315.81;;;6.57;66.82
79752;BME280;69234;47.446;21.636;2023-04-28T05:25:06;101305.97;;;6.57;66.77
79752;BME280;69234;47.446;21.636;2023-04-28T05:25:37;101307.78;;;6.57;66.98
79752;BME280;69234;47.446;21.636;2023-04-28T05:26:08;101313.94;;;6.59;67.67
79752;BME280;69234;47.446;21.636;2023-04-28T05:26:39;101305.06;;;6.58;67.75
79752;BME280;69234;47.446;21.636;2023-04-28T05:27:13;101307.63;;;6.60;67.31
79752;BME280;69234;47.446;21.636;2023-04-28T05:27:44;101307.53;;;6.61;67.71
79752;BME280;69234;47.446;21.636;2023-04-28T05:28:15;101310.31;;;6.60;67.69
79752;BME280;69234;47.446;21.636;2023-04-28T05:28:47;101311.25;;;6.59;67.22
79752;BME280;69234;47.446;21.636;2023-04-28T05:29:20;101317.34;;;6.61;67.02
79752;BME280;69234;47.446;21.636;2023-04-28T05:29:51;101314.84;;;6.58;66.99
79752;BME280;69234;47.446;21.636;2023-04-28T05:30:22;101317.19;;;6.64;66.76
79752;BME280;69234;47.446;21.636;2023-04-28T05:30:53;101312.50;;;6.69;67.63
79752;BME280;69234;47.446;21.636;2023-04-28T05:31:24;101316.03;;;6.70;67.66
79752;BME280;69234;47.446;21.636;2023-04-28T05:31:55;101314.31;;;6.69;68.02
79752;BME280;69234;47.446;21.636;2023-04-28T05:32:27;101301.88;;;6.67;67.55
79752;BME280;69234;47.446;21.636;2023-04-28T05:32:59;101324.56;;;6.76;66.98
79752;BME280;69234;47.446;21.636;2023-04-28T05:33:30;101320.84;;;6.79;68.14
79752;BME280;69234;47.446;21.636;2023-04-28T05:34:01;101319.06;;;6.79;67.30
79752;BME280;69234;47.446;21.636;2023-04-28T05:34:32;101324.03;;;6.85;67.58
79752;BME280;69234;47.446;21.636;2023-04-28T05:35:03;101318.31;;;6.93;68.14
79752;BME280;69234;47.446;21.636;2023-04-28T05:35:34;101308.38;;;6.95;67.71
79752;BME280;69234;47.446;21.636;2023-04-28T05:36:09;101302.97;;;6.97;68.00
79752;BME280;69234;47.446;21.636;2023-04-28T05:36:41;101313.13;;;7.06;67.46
79752;BME280;69234;47.446;21.636;2023-04-28T05:37:14;101302.28;;;7.09;68.12
79752;BME280;69234;47.446;21.636;2023-04-28T05:37:47;101316.16;;;7.15;68.07
79752;BME280;69234;47.446;21.636;2023-04-28T05:38:19;101309.69;;;7.20;67.86
79752;BME280;69234;47.446;21.636;2023-04-28T05:38:52;101319.41;;;7.36;68.75
79752;BME280;69234;47.446;21.636;2023-04-28T05:39:23;101302.97;;;7.28;67.56
79752;BME280;69234;47.446;21.636;2023-04-28T05:39:54;101313.91;;;7.39;66.69
79752;BME280;69234;47.446;21.636;2023-04-28T05:40:25;101320.56;;;7.48;67.99
79752;BME280;69234;47.446;21.636;2023-04-28T05:40:57;101310.97;;;7.44;68.46
79752;BME280;69234;47.446;21.636;2023-04-28T05:41:27;101303.72;;;7.46;67.01
79752;BME280;69234;47.446;21.636;2023-04-28T05:41:59;101309.94;;;7.47;67.58
79752;BME280;69234;47.446;21.636;2023-04-28T05:42:31;101318.81;;;7.63;67.84
79752;BME280;69234;47.446;21.636;2023-04-28T05:43:02;101320.16;;;7.70;66.73
79752;BME280;69234;47.446;21.636;2023-04-28T05:43:33;101320.00;;;7.73;66.37
79752;BME280;69234;47.446;21.636;2023-04-28T05:44:04;101330.91;;;7.84;66.33
79752;BME280;69234;47.446;21.636;2023-04-28T05:44:35;101304.44;;;7.80;65.55
79752;BME280;69234;47.446;21.636;2023-04-28T05:45:07;101308.56;;;7.85;66.43
79752;BME280;69234;47.446;21.636;2023-04-28T05:45:38;101329.25;;;7.98;66.04
79752;BME280;69234;47.446;21.636;2023-04-28T05:46:09;101321.13;;;7.99;64.80
79752;BME280;69234;47.446;21.636;2023-04-28T05:46:40;101313.09;;;7.99;64.48
79752;BME280;69234;47.446;21.636;2023-04-28T05:47:11;101322.41;;;8.08;64.02
79752;BME280;69234;47.446;21.636;2023-04-28T05:47:42;101312.09;;;8.16;64.32
79752;BME280;69234;47.446;21.636;2023-04-28T05:48:14;101330.34;;;8.24;63.24
79752;BME280;69234;47.446;21.636;2023-04-28T05:48:45;101328.47;;;8.26;64.28
79752;BME280;69234;47.446;21.636;2023-04-28T05:49:17;101320.63;;;8.23;63.59
79752;BME280;69234;47.446;21.636;2023-04-28T05:49:47;101322.25;;;8.25;62.22
79752;BME280;69234;47.446;21.636;2023-04-28T05:50:18;101331.34;;;8.37;63.67
79752;BME280;69234;47.446;21.636;2023-04-28T05:50:52;101303.22;;;8.30;64.60
79752;BME280;69234;47.446;21.636;2023-04-28T05:51:23;101324.78;;;8.43;62.81
79752;BME280;69234;47.446;21.636;2023-04-28T05:51:53;101335.13;;;8.49;63.15
79752;BME280;69234;47.446;21.636;2023-04-28T05:52:24;101331.56;;;8.48;62.09
79752;BME280;69234;47.446;21.636;2023-04-28T05:52:55;101317.91;;;8.39;61.14
79752;BME280;69234;47.446;21.636;2023-04-28T05:53:26;101325.47;;;8.46;61.33
79752;BME280;69234;47.446;21.636;2023-04-28T05:53:57;101323.47;;;8.50;61.41
79752;BME280;69234;47.446;21.636;2023-04-28T05:54:29;101311.59;;;8.54;60.97
79752;BME280;69234;47.446;21.636;2023-04-28T05:55:00;101326.53;;;8.72;62.08
79752;BME280;69234;47.446;21.636;2023-04-28T05:55:31;101322.63;;;8.78;61.31
79752;BME280;69234;47.446;21.636;2023-04-28T05:56:02;101331.78;;;8.88;62.17
79752;BME280;69234;47.446;21.636;2023-04-28T05:56:34;101304.25;;;8.72;60.31
79752;BME280;69234;47.446;21.636;2023-04-28T05:57:06;101325.59;;;8.88;60.71
79752;BME280;69234;47.446;21.636;2023-04-28T05:57:37;101334.84;;;8.96;61.56
79752;BME280;69234;47.446;21.636;2023-04-28T05:58:09;101326.13;;;8.93;61.64
79752;BME280;69234;47.446;21.636;2023-04-28T05:58:41;101318.69;;;8.98;60.58
79752;BME280;69234;47.446;21.636;2023-04-28T05:59:16;101315.16;;;8.97;61.63
79752;BME280;69234;47.446;21.636;2023-04-28T05:59:47;101327.66;;;9.11;59.98
79752;BME280;69234;47.446;21.636;2023-04-28T06:00:19;101331.09;;;9.13;58.79
79752;BME280;69234;47.446;21.636;2023-04-28T06:00:50;101318.66;;;9.12;59.21
79752;BME280;69234;47.446;21.636;2023-04-28T06:01:21;101333.94;;;9.24;59.50
79752;BME280;69234;47.446;21.636;2023-04-28T06:01:53;101333.56;;;9.31;59.63
79752;BME280;69234;47.446;21.636;2023-04-28T06:02:24;101332.97;;;9.40;58.06
79752;BME280;69234;47.446;21.636;2023-04-28T06:02:55;101325.13;;;9.37;57.98
79752;BME280;69234;47.446;21.636;2023-04-28T06:03:26;101323.59;;;9.33;57.33
79752;BME280;69234;47.446;21.636;2023-04-28T06:03:57;101322.63;;;9.34;58.15
79752;BME280;69234;47.446;21.636;2023-04-28T06:04:28;101319.63;;;9.38;58.68
79752;BME280;69234;47.446;21.636;2023-04-28T06:04:59;101334.94;;;9.50;58.45
79752;BME280;69234;47.446;21.636;2023-04-28T06:05:30;101311.78;;;9.49;57.63
79752;BME280;69234;47.446;21.636;2023-04-28T06:06:01;101319.84;;;9.62;58.68
79752;BME280;69234;47.446;21.636;2023-04-28T06:06:32;101320.44;;;9.67;60.22
79752;BME280;69234;47.446;21.636;2023-04-28T06:07:04;101321.75;;;9.74;58.18
79752;BME280;69234;47.446;21.636;2023-04-28T06:07:37;101320.31;;;9.69;57.00
79752;BME280;69234;47.446;21.636;2023-04-28T06:08:08;101324.81;;;9.68;57.98
79752;BME280;69234;47.446;21.636;2023-04-28T06:08:38;101320.03;;;9.73;59.17
79752;BME280;69234;47.446;21.636;2023-04-28T06:09:09;101328.00;;;9.88;58.69
79752;BME280;69234;47.446;21.636;2023-04-28T06:09:40;101319.97;;;9.88;59.83
79752;BME280;69234;47.446;21.636;2023-04-28T06:10:11;101328.22;;;9.97;58.07
79752;BME280;69234;47.446;21.636;2023-04-28T06:10:42;101331.91;;;10.09;58.36
79752;BME280;69234;47.446;21.636;2023-04-28T06:11:13;101314.31;;;10.05;58.65
79752;BME280;69234;47.446;21.636;2023-04-28T06:11:43;101315.19;;;10.18;57.88
79752;BME280;69234;47.446;21.636;2023-04-28T06:12:14;101306.16;;;10.19;57.44
79752;BME280;69234;47.446;21.636;2023-04-28T06:12:45;101325.03;;;10.32;56.51
79752;BME280;69234;47.446;21.636;2023-04-28T06:13:16;101311.34;;;10.35;57.37
79752;BME280;69234;47.446;21.636;2023-04-28T06:13:49;101316.72;;;10.35;55.99
79752;BME280;69234;47.446;21.636;2023-04-28T06:14:22;101311.06;;;10.40;55.85
79752;BME280;69234;47.446;21.636;2023-04-28T06:14:52;101320.81;;;10.41;53.21
79752;BME280;69234;47.446;21.636;2023-04-28T06:15:25;101319.13;;;10.40;54.10
79752;BME280;69234;47.446;21.636;2023-04-28T06:15:56;101314.06;;;10.48;55.23
79752;BME280;69234;47.446;21.636;2023-04-28T06:17:01;101325.13;;;10.56;54.88
79752;BME280;69234;47.446;21.636;2023-04-28T06:18:06;101322.22;;;10.59;52.31
79752;BME280;69234;47.446;21.636;2023-04-28T06:18:39;101322.03;;;10.50;51.00
79752;BME280;69234;47.446;21.636;2023-04-28T06:19:09;101320.63;;;10.44;50.84
79752;BME280;69234;47.446;21.636;2023-04-28T06:19:40;101316.94;;;10.45;50.71
79752;BME280;69234;47.446;21.636;2023-04-28T06:20:11;101317.38;;;10.52;50.56
79752;BME280;69234;47.446;21.636;2023-04-28T06:20:43;101314.81;;;10.50;50.17
79752;BME280;69234;47.446;21.636;2023-04-28T06:21:15;101315.25;;;10.57;50.54
79752;BME280;69234;47.446;21.636;2023-04-28T06:21:46;101320.59;;;10.69;51.46
79752;BME280;69234;47.446;21.636;2023-04-28T06:22:19;101316.72;;;10.74;51.60
79752;BME280;69234;47.446;21.636;2023-04-28T06:22:50;101322.09;;;10.74;51.09
79752;BME280;69234;47.446;21.636;2023-04-28T06:23:22;101314.03;;;10.74;50.15
79752;BME280;69234;47.446;21.636;2023-04-28T06:23:54;101318.69;;;10.84;50.50
79752;BME280;69234;47.446;21.636;2023-04-28T06:24:25;101325.34;;;10.91;50.74
79752;BME280;69234;47.446;21.636;2023-04-28T06:24:58;101319.06;;;10.91;49.71
79752;BME280;69234;47.446;21.636;2023-04-28T06:25:37;101322.81;;;11.01;50.16
79752;BME280;69234;47.446;21.636;2023-04-28T06:26:08;101329.38;;;11.10;50.59
79752;BME280;69234;47.446;21.636;2023-04-28T06:26:42;101327.31;;;11.13;50.98
79752;BME280;69234;47.446;21.636;2023-04-28T06:27:13;101324.63;;;11.13;50.59
79752;BME280;69234;47.446;21.636;2023-04-28T06:27:44;101325.41;;;11.15;49.82
79752;BME280;69234;47.446;21.636;2023-04-28T06:28:15;101323.78;;;11.13;52.30
79752;BME280;69234;47.446;21.636;2023-04-28T06:28:46;101332.41;;;11.05;49.30
79752;BME280;69234;47.446;21.636;2023-04-28T06:29:17;101326.78;;;11.08;49.70
79752;BME280;69234;47.446;21.636;2023-04-28T06:29:49;101322.94;;;11.12;49.33
79752;BME280;69234;47.446;21.636;2023-04-28T06:30:22;101322.44;;;11.18;48.64
79752;BME280;69234;47.446;21.636;2023-04-28T06:30:53;101330.50;;;11.31;48.64
79752;BME280;69234;47.446;21.636;2023-04-28T06:31:24;101319.66;;;11.33;48.77
79752;BME280;69234;47.446;21.636;2023-04-28T06:31:57;101325.53;;;11.38;47.60
79752;BME280;69234;47.446;21.636;2023-04-28T06:32:28;101333.94;;;11.33;49.09
79752;BME280;69234;47.446;21.636;2023-04-28T06:32:59;101327.94;;;11.30;48.38
79752;BME280;69234;47.446;21.636;2023-04-28T06:33:30;101320.09;;;11.27;49.25
79752;BME280;69234;47.446;21.636;2023-04-28T06:34:01;101309.09;;;11.30;47.49
79752;BME280;69234;47.446;21.636;2023-04-28T06:34:34;101324.38;;;11.29;46.98
79752;BME280;69234;47.446;21.636;2023-04-28T06:35:05;101328.66;;;11.32;47.20
79752;BME280;69234;47.446;21.636;2023-04-28T06:35:36;101317.69;;;11.35;47.51
79752;BME280;69234;47.446;21.636;2023-04-28T06:36:08;101322.19;;;11.47;49.22
79752;BME280;69234;47.446;21.636;2023-04-28T06:36:43;101321.41;;;11.45;46.28
79752;BME280;69234;47.446;21.636;2023-04-28T06:37:14;101333.56;;;11.51;46.57
79752;BME280;69234;47.446;21.636;2023-04-28T06:37:45;101334.44;;;11.51;47.12
79752;BME280;69234;47.446;21.636;2023-04-28T06:38:16;101325.38;;;11.52;46.50
79752;BME280;69234;47.446;21.636;2023-04-28T06:38:46;101328.59;;;11.57;47.17
79752;BME280;69234;47.446;21.636;2023-04-28T06:39:17;101322.84;;;11.62;48.99
79752;BME280;69234;47.446;21.636;2023-04-28T06:39:48;101324.25;;;11.68;49.80
79752;BME280;69234;47.446;21.636;2023-04-28T06:40:20;101320.34;;;11.72;48.26
79752;BME280;69234;47.446;21.636;2023-04-28T06:40:57;101323.75;;;11.74;47.40
79752;BME280;69234;47.446;21.636;2023-04-28T06:41:28;101320.34;;;11.72;47.54
79752;BME280;69234;47.446;21.636;2023-04-28T06:42:00;101320.34;;;11.72;46.13
79752;BME280;69234;47.446;21.636;2023-04-28T06:42:32;101320.03;;;11.63;45.20
79752;BME280;69234;47.446;21.636;2023-04-28T06:43:11;101318.72;;;11.69;45.84
79752;BME280;69234;47.446;21.636;2023-04-28T06:43:53;101325.19;;;11.66;46.39
79752;BME280;69234;47.446;21.636;2023-04-28T06:44:34;101320.44;;;11.70;46.69
79752;BME280;69234;47.446;21.636;2023-04-28T06:45:05;101324.38;;;11.77;46.63
79752;BME280;69234;47.446;21.636;2023-04-28T06:45:37;101321.47;;;11.80;46.45